sensor_id;sensor_type;location;lat;lon;timestamp;temperature;humidity
30520;DHT22;17300;50.374;8.006;2023-07-30T00:00:53;22.90;58.00
30520;DHT22;17300;50.374;8.006;2023-07-30T00:03:21;22.90;58.00
30520;DHT22;17300;50.374;8.006;2023-07-30T00:05:54;22.80;57.90
30520;DHT22;17300;50.374;8.006;2023-07-30T00:08:21;22.80;58.20
30520;DHT22;17300;50.374;8.006;2023-07-30T00:10:47;22.80;57.90
30520;DHT22;17300;50.374;8.006;2023-07-30T00:13:15;22.80;58.10
30520;DHT22;17300;50.374;8.006;2023-07-30T00:15:41;22.80;58.10
30520;DHT22;17300;50.374;8.006;2023-07-30T00:18:08;22.80;58.20
30520;DHT22;17300;50.374;8.006;2023-07-30T00:20:36;22.80;58.20
30520;DHT22;17300;50.374;8.006;2023-07-30T00:23:03;22.70;58.30
30520;DHT22;17300;50.374;8.006;2023-07-30T00:25:29;22.70;58.40
30520;DHT22;17300;50.374;8.006;2023-07-30T00:27:56;22.70;58.40
30520;DHT22;17300;50.374;8.006;2023-07-30T00:30:23;22.70;58.40
30520;DHT22;17300;50.374;8.006;2023-07-30T00:32:49;22.60;58.30
30520;DHT22;17300;50.374;8.006;2023-07-30T00:35:16;22.70;58.40
30520;DHT22;17300;50.374;8.006;2023-07-30T00:37:44;22.70;58.40
30520;DHT22;17300;50.374;8.006;2023-07-30T00:40:11;22.60;58.40
30520;DHT22;17300;50.374;8.006;2023-07-30T00:42:38;22.60;58.30
30520;DHT22;17300;50.374;8.006;2023-07-30T00:45:06;22.60;58.30
30520;DHT22;17300;50.374;8.006;2023-07-30T00:47:33;22.60;58.50
30520;DHT22;17300;50.374;8.006;2023-07-30T00:50:00;22.60;58.50
30520;DHT22;17300;50.374;8.006;2023-07-30T00:52:28;22.60;58.60
30520;DHT22;17300;50.374;8.006;2023-07-30T00:54:57;22.50;58.50
30520;DHT22;17300;50.374;8.006;2023-07-30T00:57:25;22.50;58.60
30520;DHT22;17300;50.374;8.006;2023-07-30T00:59:53;22.50;58.40
30520;DHT22;17300;50.374;8.006;2023-07-30T01:02:20;22.50;58.40
30520;DHT22;17300;50.374;8.006;2023-07-30T01:04:47;22.50;58.50
30520;DHT22;17300;50.374;8.006;2023-07-30T01:07:14;22.40;58.50
30520;DHT22;17300;50.374;8.006;2023-07-30T01:09:40;22.40;58.60
30520;DHT22;17300;50.374;8.006;2023-07-30T01:12:09;22.30;58.60
30520;DHT22;17300;50.374;8.006;2023-07-30T01:14:36;22.30;58.80
30520;DHT22;17300;50.374;8.006;2023-07-30T01:17:04;22.30;58.80
30520;DHT22;17300;50.374;8.006;2023-07-30T01:19:31;22.20;58.70
30520;DHT22;17300;50.374;8.006;2023-07-30T01:21:59;22.20;58.80
30520;DHT22;17300;50.374;8.006;2023-07-30T01:24:26;22.20;58.80
30520;DHT22;17300;50.374;8.006;2023-07-30T01:26:56;22.20;58.80
30520;DHT22;17300;50.374;8.006;2023-07-30T01:29:33;22.20;58.90
30520;DHT22;17300;50.374;8.006;2023-07-30T01:32:07;22.10;58.80
30520;DHT22;17300;50.374;8.006;2023-07-30T01:34:35;22.10;58.70
30520;DHT22;17300;50.374;8.006;2023-07-30T01:37:05;22.00;58.50
30520;DHT22;17300;50.374;8.006;2023-07-30T01:39:34;22.00;58.60
30520;DHT22;17300;50.374;8.006;2023-07-30T01:42:02;21.90;58.50
30520;DHT22;17300;50.374;8.006;2023-07-30T01:44:29;21.90;58.60
30520;DHT22;17300;50.374;8.006;2023-07-30T01:46:56;21.90;58.70
30520;DHT22;17300;50.374;8.006;2023-07-30T01:49:22;21.80;58.70
30520;DHT22;17300;50.374;8.006;2023-07-30T01:51:49;21.80;58.80
30520;DHT22;17300;50.374;8.006;2023-07-30T01:54:17;21.70;59.00
30520;DHT22;17300;50.374;8.006;2023-07-30T01:56:44;21.70;59.20
30520;DHT22;17300;50.374;8.006;2023-07-30T01:59:10;21.60;59.20
30520;DHT22;17300;50.374;8.006;2023-07-30T02:01:37;21.60;59.30
30520;DHT22;17300;50.374;8.006;2023-07-30T02:04:04;21.60;59.50
30520;DHT22;17300;50.374;8.006;2023-07-30T02:06:30;21.60;59.60
30520;DHT22;17300;50.374;8.006;2023-07-30T02:08:57;21.60;59.70
30520;DHT22;17300;50.374;8.006;2023-07-30T02:11:25;21.60;59.80
30520;DHT22;17300;50.374;8.006;2023-07-30T02:13:52;21.60;59.90
30520;DHT22;17300;50.374;8.006;2023-07-30T02:16:18;21.70;59.90
30520;DHT22;17300;50.374;8.006;2023-07-30T02:18:45;21.70;59.90
30520;DHT22;17300;50.374;8.006;2023-07-30T02:21:12;21.70;59.90
30520;DHT22;17300;50.374;8.006;2023-07-30T02:23:39;21.80;60.00
30520;DHT22;17300;50.374;8.006;2023-07-30T02:26:06;21.80;60.00
30520;DHT22;17300;50.374;8.006;2023-07-30T02:28:34;21.80;60.00
30520;DHT22;17300;50.374;8.006;2023-07-30T02:31:00;21.80;60.10
30520;DHT22;17300;50.374;8.006;2023-07-30T02:33:27;21.80;60.00
30520;DHT22;17300;50.374;8.006;2023-07-30T02:35:54;21.90;60.20
30520;DHT22;17300;50.374;8.006;2023-07-30T02:38:20;21.90;60.10
30520;DHT22;17300;50.374;8.006;2023-07-30T02:40:47;21.90;61.00
30520;DHT22;17300;50.374;8.006;2023-07-30T02:43:13;21.90;60.10
30520;DHT22;17300;50.374;8.006;2023-07-30T02:45:41;21.90;60.10
30520;DHT22;17300;50.374;8.006;2023-07-30T02:48:08;21.90;60.40
30520;DHT22;17300;50.374;8.006;2023-07-30T02:50:35;21.90;60.40
30520;DHT22;17300;50.374;8.006;2023-07-30T02:53:01;21.90;60.40
30520;DHT22;17300;50.374;8.006;2023-07-30T02:55:28;21.90;60.40
30520;DHT22;17300;50.374;8.006;2023-07-30T02:57:54;21.90;60.50
30520;DHT22;17300;50.374;8.006;2023-07-30T03:00:21;21.90;60.50
30520;DHT22;17300;50.374;8.006;2023-07-30T03:02:49;21.90;60.50
30520;DHT22;17300;50.374;8.006;2023-07-30T03:05:16;21.90;60.60
30520;DHT22;17300;50.374;8.006;2023-07-30T03:07:42;21.90;60.40
30520;DHT22;17300;50.374;8.006;2023-07-30T03:10:10;21.90;60.40
30520;DHT22;17300;50.374;8.006;2023-07-30T03:12:36;21.90;60.40
30520;DHT22;17300;50.374;8.006;2023-07-30T03:15:03;21.90;60.40
30520;DHT22;17300;50.374;8.006;2023-07-30T03:17:30;21.90;60.40
30520;DHT22;17300;50.374;8.006;2023-07-30T03:19:58;21.90;60.50
30520;DHT22;17300;50.374;8.006;2023-07-30T03:22:25;21.80;60.50
30520;DHT22;17300;50.374;8.006;2023-07-30T03:24:52;21.80;60.50
30520;DHT22;17300;50.374;8.006;2023-07-30T03:27:18;21.80;60.50
30520;DHT22;17300;50.374;8.006;2023-07-30T03:29:45;21.80;60.40
30520;DHT22;17300;50.374;8.006;2023-07-30T03:32:11;21.70;60.30
30520;DHT22;17300;50.374;8.006;2023-07-30T03:34:38;21.70;60.20
30520;DHT22;17300;50.374;8.006;2023-07-30T03:37:06;21.60;60.20
30520;DHT22;17300;50.374;8.006;2023-07-30T03:39:33;21.60;60.30
30520;DHT22;17300;50.374;8.006;2023-07-30T03:41:59;21.50;60.20
30520;DHT22;17300;50.374;8.006;2023-07-30T03:44:26;21.50;60.30
30520;DHT22;17300;50.374;8.006;2023-07-30T03:46:53;21.50;60.50
30520;DHT22;17300;50.374;8.006;2023-07-30T03:49:19;21.40;60.60
30520;DHT22;17300;50.374;8.006;2023-07-30T03:51:47;21.40;60.70
30520;DHT22;17300;50.374;8.006;2023-07-30T03:54:15;21.30;60.70
30520;DHT22;17300;50.374;8.006;2023-07-30T03:56:41;21.30;60.80
30520;DHT22;17300;50.374;8.006;2023-07-30T03:59:08;21.20;60.70
30520;DHT22;17300;50.374;8.006;2023-07-30T04:01:35;21.20;60.80
30520;DHT22;17300;50.374;8.006;2023-07-30T04:04:01;21.20;60.90
30520;DHT22;17300;50.374;8.006;2023-07-30T04:06:28;21.10;61.00
30520;DHT22;17300;50.374;8.006;2023-07-30T04:08:55;21.10;61.00
30520;DHT22;17300;50.374;8.006;2023-07-30T04:11:23;21.10;61.20
30520;DHT22;17300;50.374;8.006;2023-07-30T04:13:49;21.10;61.50
30520;DHT22;17300;50.374;8.006;2023-07-30T04:16:16;21.10;61.70
30520;DHT22;17300;50.374;8.006;2023-07-30T04:18:42;21.10;62.00
30520;DHT22;17300;50.374;8.006;2023-07-30T04:21:09;21.10;62.10
30520;DHT22;17300;50.374;8.006;2023-07-30T04:23:36;21.10;62.10
30520;DHT22;17300;50.374;8.006;2023-07-30T04:26:03;21.20;62.30
30520;DHT22;17300;50.374;8.006;2023-07-30T04:28:31;21.20;62.20
30520;DHT22;17300;50.374;8.006;2023-07-30T04:30:57;21.20;62.20
30520;DHT22;17300;50.374;8.006;2023-07-30T04:33:24;21.20;62.10
30520;DHT22;17300;50.374;8.006;2023-07-30T04:35:52;21.20;62.00
30520;DHT22;17300;50.374;8.006;2023-07-30T04:38:18;21.20;62.00
30520;DHT22;17300;50.374;8.006;2023-07-30T04:40:45;21.20;62.00
30520;DHT22;17300;50.374;8.006;2023-07-30T04:43:11;21.30;62.10
30520;DHT22;17300;50.374;8.006;2023-07-30T04:45:40;21.30;62.20
30520;DHT22;17300;50.374;8.006;2023-07-30T04:48:06;21.30;62.50
30520;DHT22;17300;50.374;8.006;2023-07-30T04:50:33;21.30;62.50
30520;DHT22;17300;50.374;8.006;2023-07-30T04:53:00;21.30;63.40
30520;DHT22;17300;50.374;8.006;2023-07-30T04:55:27;21.40;62.90
30520;DHT22;17300;50.374;8.006;2023-07-30T04:57:53;21.50;62.90
30520;DHT22;17300;50.374;8.006;2023-07-30T05:00:20;21.50;63.00
30520;DHT22;17300;50.374;8.006;2023-07-30T05:02:48;21.60;63.00
30520;DHT22;17300;50.374;8.006;2023-07-30T05:05:15;21.60;62.90
30520;DHT22;17300;50.374;8.006;2023-07-30T05:07:41;21.70;62.90
30520;DHT22;17300;50.374;8.006;2023-07-30T05:10:08;21.80;63.00
30520;DHT22;17300;50.374;8.006;2023-07-30T05:12:36;21.90;63.00
30520;DHT22;17300;50.374;8.006;2023-07-30T05:15:03;22.00;62.80
30520;DHT22;17300;50.374;8.006;2023-07-30T05:17:31;22.00;62.50
30520;DHT22;17300;50.374;8.006;2023-07-30T05:19:59;22.10;62.40
30520;DHT22;17300;50.374;8.006;2023-07-30T05:22:25;22.20;62.20
30520;DHT22;17300;50.374;8.006;2023-07-30T05:24:52;22.20;62.00
30520;DHT22;17300;50.374;8.006;2023-07-30T05:27:19;22.20;62.30
30520;DHT22;17300;50.374;8.006;2023-07-30T05:29:45;22.40;63.30
30520;DHT22;17300;50.374;8.006;2023-07-30T05:32:12;22.50;63.80
30520;DHT22;17300;50.374;8.006;2023-07-30T05:34:39;22.70;64.70
30520;DHT22;17300;50.374;8.006;2023-07-30T05:37:07;23.00;65.70
30520;DHT22;17300;50.374;8.006;2023-07-30T05:39:33;23.40;66.80
30520;DHT22;17300;50.374;8.006;2023-07-30T05:42:00;23.80;67.80
30520;DHT22;17300;50.374;8.006;2023-07-30T05:44:26;24.40;68.40
30520;DHT22;17300;50.374;8.006;2023-07-30T05:46:53;24.90;68.70
30520;DHT22;17300;50.374;8.006;2023-07-30T05:49:20;25.50;67.80
30520;DHT22;17300;50.374;8.006;2023-07-30T05:51:46;26.10;66.20
30520;DHT22;17300;50.374;8.006;2023-07-30T05:54:14;26.70;64.80
30520;DHT22;17300;50.374;8.006;2023-07-30T05:56:41;27.20;63.40
30520;DHT22;17300;50.374;8.006;2023-07-30T05:59:08;27.70;62.30
30520;DHT22;17300;50.374;8.006;2023-07-30T06:01:34;28.20;60.50
30520;DHT22;17300;50.374;8.006;2023-07-30T06:04:01;28.50;58.50
30520;DHT22;17300;50.374;8.006;2023-07-30T06:06:28;28.70;56.60
30520;DHT22;17300;50.374;8.006;2023-07-30T06:08:55;28.70;55.10
30520;DHT22;17300;50.374;8.006;2023-07-30T06:11:24;28.60;54.40
30520;DHT22;17300;50.374;8.006;2023-07-30T06:13:51;28.50;54.20
30520;DHT22;17300;50.374;8.006;2023-07-30T06:16:18;28.40;54.30
30520;DHT22;17300;50.374;8.006;2023-07-30T06:18:46;28.30;54.10
30520;DHT22;17300;50.374;8.006;2023-07-30T06:21:12;28.20;54.00
30520;DHT22;17300;50.374;8.006;2023-07-30T06:23:39;28.10;53.70
30520;DHT22;17300;50.374;8.006;2023-07-30T06:26:06;28.00;53.30
30520;DHT22;17300;50.374;8.006;2023-07-30T06:28:34;27.80;53.00
30520;DHT22;17300;50.374;8.006;2023-07-30T06:31:01;27.60;52.80
30520;DHT22;17300;50.374;8.006;2023-07-30T06:33:27;27.40;52.90
30520;DHT22;17300;50.374;8.006;2023-07-30T06:35:54;27.20;52.80
30520;DHT22;17300;50.374;8.006;2023-07-30T06:38:21;27.00;52.80
30520;DHT22;17300;50.374;8.006;2023-07-30T06:40:48;26.90;52.70
30520;DHT22;17300;50.374;8.006;2023-07-30T06:43:14;26.70;52.80
30520;DHT22;17300;50.374;8.006;2023-07-30T06:45:43;26.50;52.90
30520;DHT22;17300;50.374;8.006;2023-07-30T06:48:10;26.30;52.90
30520;DHT22;17300;50.374;8.006;2023-07-30T06:50:37;26.10;53.40
30520;DHT22;17300;50.374;8.006;2023-07-30T06:53:03;25.90;53.80
30520;DHT22;17300;50.374;8.006;2023-07-30T06:55:30;25.80;53.90
30520;DHT22;17300;50.374;8.006;2023-07-30T06:57:56;25.70;54.50
30520;DHT22;17300;50.374;8.006;2023-07-30T07:00:23;25.70;54.50
30520;DHT22;17300;50.374;8.006;2023-07-30T07:02:51;25.60;54.80
30520;DHT22;17300;50.374;8.006;2023-07-30T07:05:18;25.60;54.80
30520;DHT22;17300;50.374;8.006;2023-07-30T07:07:45;25.50;54.40
30520;DHT22;17300;50.374;8.006;2023-07-30T07:10:12;25.50;54.30
30520;DHT22;17300;50.374;8.006;2023-07-30T07:12:39;25.40;54.30
30520;DHT22;17300;50.374;8.006;2023-07-30T07:15:06;25.40;54.40
30520;DHT22;17300;50.374;8.006;2023-07-30T07:17:34;25.30;54.40
30520;DHT22;17300;50.374;8.006;2023-07-30T07:20:03;25.30;54.50
30520;DHT22;17300;50.374;8.006;2023-07-30T07:22:30;25.20;54.40
30520;DHT22;17300;50.374;8.006;2023-07-30T07:24:57;25.20;54.30
30520;DHT22;17300;50.374;8.006;2023-07-30T07:27:24;25.20;54.30
30520;DHT22;17300;50.374;8.006;2023-07-30T07:29:50;25.10;54.40
30520;DHT22;17300;50.374;8.006;2023-07-30T07:32:17;25.10;54.50
30520;DHT22;17300;50.374;8.006;2023-07-30T07:34:46;25.10;54.70
30520;DHT22;17300;50.374;8.006;2023-07-30T07:37:14;25.10;54.60
30520;DHT22;17300;50.374;8.006;2023-07-30T07:39:42;25.10;54.50
30520;DHT22;17300;50.374;8.006;2023-07-30T07:42:09;25.10;54.50
30520;DHT22;17300;50.374;8.006;2023-07-30T07:44:35;25.10;55.00
30520;DHT22;17300;50.374;8.006;2023-07-30T07:47:02;25.00;54.30
30520;DHT22;17300;50.374;8.006;2023-07-30T07:49:29;25.00;54.20
30520;DHT22;17300;50.374;8.006;2023-07-30T07:51:56;24.90;54.10
30520;DHT22;17300;50.374;8.006;2023-07-30T07:54:24;24.90;54.20
30520;DHT22;17300;50.374;8.006;2023-07-30T07:56:51;24.70;54.40
30520;DHT22;17300;50.374;8.006;2023-07-30T07:59:17;24.70;54.80
30520;DHT22;17300;50.374;8.006;2023-07-30T08:01:44;24.60;54.90
30520;DHT22;17300;50.374;8.006;2023-07-30T08:04:11;24.50;55.10
30520;DHT22;17300;50.374;8.006;2023-07-30T08:06:37;24.50;55.20
30520;DHT22;17300;50.374;8.006;2023-07-30T08:09:04;24.30;55.30
30520;DHT22;17300;50.374;8.006;2023-07-30T08:11:32;24.30;55.50
30520;DHT22;17300;50.374;8.006;2023-07-30T08:13:59;24.20;55.80
30520;DHT22;17300;50.374;8.006;2023-07-30T08:16:26;24.20;55.90
30520;DHT22;17300;50.374;8.006;2023-07-30T08:18:53;24.10;55.90
30520;DHT22;17300;50.374;8.006;2023-07-30T08:21:20;24.00;55.90
30520;DHT22;17300;50.374;8.006;2023-07-30T08:23:47;24.00;56.00
30520;DHT22;17300;50.374;8.006;2023-07-30T08:26:14;23.90;56.00
30520;DHT22;17300;50.374;8.006;2023-07-30T08:28:42;23.90;56.20
30520;DHT22;17300;50.374;8.006;2023-07-30T08:31:08;23.80;56.40
30520;DHT22;17300;50.374;8.006;2023-07-30T08:33:35;23.80;56.60
30520;DHT22;17300;50.374;8.006;2023-07-30T08:36:02;23.80;56.80
30520;DHT22;17300;50.374;8.006;2023-07-30T08:38:29;23.70;56.90
30520;DHT22;17300;50.374;8.006;2023-07-30T08:40:56;23.70;56.90
30520;DHT22;17300;50.374;8.006;2023-07-30T08:43:23;23.60;56.80
30520;DHT22;17300;50.374;8.006;2023-07-30T08:45:51;23.50;56.80
30520;DHT22;17300;50.374;8.006;2023-07-30T08:48:18;23.40;56.80
30520;DHT22;17300;50.374;8.006;2023-07-30T08:50:47;23.30;56.80
30520;DHT22;17300;50.374;8.006;2023-07-30T08:53:17;23.30;56.80
30520;DHT22;17300;50.374;8.006;2023-07-30T08:55:44;23.20;56.70
30520;DHT22;17300;50.374;8.006;2023-07-30T08:58:12;23.00;56.60
30520;DHT22;17300;50.374;8.006;2023-07-30T09:00:41;23.00;56.90
30520;DHT22;17300;50.374;8.006;2023-07-30T09:03:14;22.90;57.30
30520;DHT22;17300;50.374;8.006;2023-07-30T09:05:41;22.90;58.00
30520;DHT22;17300;50.374;8.006;2023-07-30T09:08:08;22.90;57.90
30520;DHT22;17300;50.374;8.006;2023-07-30T09:10:36;22.80;57.90
30520;DHT22;17300;50.374;8.006;2023-07-30T09:13:02;22.90;58.60
30520;DHT22;17300;50.374;8.006;2023-07-30T09:15:30;22.90;58.60
30520;DHT22;17300;50.374;8.006;2023-07-30T09:17:58;23.10;59.30
30520;DHT22;17300;50.374;8.006;2023-07-30T09:20:26;23.10;59.40
30520;DHT22;17300;50.374;8.006;2023-07-30T09:22:56;23.30;59.70
30520;DHT22;17300;50.374;8.006;2023-07-30T09:25:23;23.50;59.80
30520;DHT22;17300;50.374;8.006;2023-07-30T09:27:50;23.70;59.90
30520;DHT22;17300;50.374;8.006;2023-07-30T09:30:22;23.90;59.70
30520;DHT22;17300;50.374;8.006;2023-07-30T09:32:51;24.10;59.50
30520;DHT22;17300;50.374;8.006;2023-07-30T09:35:18;24.30;59.20
30520;DHT22;17300;50.374;8.006;2023-07-30T09:37:46;24.40;58.60
30520;DHT22;17300;50.374;8.006;2023-07-30T09:40:14;24.50;58.20
30520;DHT22;17300;50.374;8.006;2023-07-30T09:42:43;24.50;57.70
30520;DHT22;17300;50.374;8.006;2023-07-30T09:45:17;24.50;57.10
30520;DHT22;17300;50.374;8.006;2023-07-30T09:47:46;24.50;57.00
30520;DHT22;17300;50.374;8.006;2023-07-30T09:50:14;24.50;57.40
30520;DHT22;17300;50.374;8.006;2023-07-30T09:52:41;24.50;57.50
30520;DHT22;17300;50.374;8.006;2023-07-30T09:55:10;24.60;58.20
30520;DHT22;17300;50.374;8.006;2023-07-30T09:57:36;24.70;59.20
30520;DHT22;17300;50.374;8.006;2023-07-30T10:00:04;24.90;59.90
30520;DHT22;17300;50.374;8.006;2023-07-30T10:02:37;25.30;60.50
30520;DHT22;17300;50.374;8.006;2023-07-30T10:05:08;25.70;60.30
30520;DHT22;17300;50.374;8.006;2023-07-30T10:07:39;26.10;59.30
30520;DHT22;17300;50.374;8.006;2023-07-30T10:10:09;26.40;58.70
30520;DHT22;17300;50.374;8.006;2023-07-30T10:12:36;26.80;58.20
30520;DHT22;17300;50.374;8.006;2023-07-30T10:15:06;27.30;59.10
30520;DHT22;17300;50.374;8.006;2023-07-30T10:17:33;27.80;59.30
30520;DHT22;17300;50.374;8.006;2023-07-30T10:20:19;28.40;59.50
30520;DHT22;17300;50.374;8.006;2023-07-30T10:22:46;29.20;58.80
30520;DHT22;17300;50.374;8.006;2023-07-30T10:25:14;30.00;59.40
30520;DHT22;17300;50.374;8.006;2023-07-30T10:27:41;30.80;57.30
30520;DHT22;17300;50.374;8.006;2023-07-30T10:30:13;31.50;55.30
30520;DHT22;17300;50.374;8.006;2023-07-30T10:32:41;32.00;53.40
30520;DHT22;17300;50.374;8.006;2023-07-30T10:35:08;32.50;52.20
30520;DHT22;17300;50.374;8.006;2023-07-30T10:37:35;32.80;50.80
30520;DHT22;17300;50.374;8.006;2023-07-30T10:40:17;33.00;48.90
30520;DHT22;17300;50.374;8.006;2023-07-30T10:42:44;33.00;46.30
30520;DHT22;17300;50.374;8.006;2023-07-30T10:45:11;32.80;46.30
30520;DHT22;17300;50.374;8.006;2023-07-30T10:47:37;32.50;45.30
30520;DHT22;17300;50.374;8.006;2023-07-30T10:50:08;32.20;44.80
30520;DHT22;17300;50.374;8.006;2023-07-30T10:52:37;31.70;44.40
30520;DHT22;17300;50.374;8.006;2023-07-30T10:55:04;31.30;44.40
30520;DHT22;17300;50.374;8.006;2023-07-30T10:57:32;30.80;44.70
30520;DHT22;17300;50.374;8.006;2023-07-30T10:59:59;30.30;44.60
30520;DHT22;17300;50.374;8.006;2023-07-30T11:02:27;29.80;45.00
30520;DHT22;17300;50.374;8.006;2023-07-30T11:04:54;29.30;45.30
30520;DHT22;17300;50.374;8.006;2023-07-30T11:07:20;28.80;45.80
30520;DHT22;17300;50.374;8.006;2023-07-30T11:09:58;28.40;46.20
30520;DHT22;17300;50.374;8.006;2023-07-30T11:12:25;28.10;46.10
30520;DHT22;17300;50.374;8.006;2023-07-30T11:15:00;27.80;46.80
30520;DHT22;17300;50.374;8.006;2023-07-30T11:17:26;27.50;47.00
30520;DHT22;17300;50.374;8.006;2023-07-30T11:19:53;27.30;47.40
30520;DHT22;17300;50.374;8.006;2023-07-30T11:22:29;27.10;47.60
30520;DHT22;17300;50.374;8.006;2023-07-30T11:24:56;26.90;47.90
30520;DHT22;17300;50.374;8.006;2023-07-30T11:27:22;26.90;48.80
30520;DHT22;17300;50.374;8.006;2023-07-30T11:29:55;27.00;49.60
30520;DHT22;17300;50.374;8.006;2023-07-30T11:32:22;27.10;49.70
30520;DHT22;17300;50.374;8.006;2023-07-30T11:34:51;27.20;49.90
30520;DHT22;17300;50.374;8.006;2023-07-30T11:37:19;27.40;49.90
30520;DHT22;17300;50.374;8.006;2023-07-30T11:39:46;27.50;49.60
30520;DHT22;17300;50.374;8.006;2023-07-30T11:42:14;27.70;48.90
30520;DHT22;17300;50.374;8.006;2023-07-30T11:44:41;27.70;48.60
30520;DHT22;17300;50.374;8.006;2023-07-30T11:47:09;27.80;48.40
30520;DHT22;17300;50.374;8.006;2023-07-30T11:49:36;27.80;48.20
30520;DHT22;17300;50.374;8.006;2023-07-30T11:52:07;27.80;48.10
30520;DHT22;17300;50.374;8.006;2023-07-30T11:54:34;27.80;47.30
30520;DHT22;17300;50.374;8.006;2023-07-30T11:57:01;27.90;48.10
30520;DHT22;17300;50.374;8.006;2023-07-30T11:59:27;28.10;48.70
30520;DHT22;17300;50.374;8.006;2023-07-30T12:01:54;28.30;48.60
30520;DHT22;17300;50.374;8.006;2023-07-30T12:04:22;28.50;48.60
30520;DHT22;17300;50.374;8.006;2023-07-30T12:06:51;28.70;47.80
30520;DHT22;17300;50.374;8.006;2023-07-30T12:09:20;28.80;47.10
30520;DHT22;17300;50.374;8.006;2023-07-30T12:11:49;28.90;46.90
30520;DHT22;17300;50.374;8.006;2023-07-30T12:14:16;29.00;46.20
30520;DHT22;17300;50.374;8.006;2023-07-30T12:16:43;29.10;46.10
30520;DHT22;17300;50.374;8.006;2023-07-30T12:19:09;29.10;46.00
30520;DHT22;17300;50.374;8.006;2023-07-30T12:21:37;29.10;46.00
30520;DHT22;17300;50.374;8.006;2023-07-30T12:24:04;29.10;46.20
30520;DHT22;17300;50.374;8.006;2023-07-30T12:26:31;29.10;46.00
30520;DHT22;17300;50.374;8.006;2023-07-30T12:28:57;29.10;45.50
30520;DHT22;17300;50.374;8.006;2023-07-30T12:31:24;29.10;45.10
30520;DHT22;17300;50.374;8.006;2023-07-30T12:33:51;29.00;45.30
30520;DHT22;17300;50.374;8.006;2023-07-30T12:36:18;28.90;44.60
30520;DHT22;17300;50.374;8.006;2023-07-30T12:38:46;28.80;44.30
30520;DHT22;17300;50.374;8.006;2023-07-30T12:41:13;28.70;44.50
30520;DHT22;17300;50.374;8.006;2023-07-30T12:43:40;28.60;44.70
30520;DHT22;17300;50.374;8.006;2023-07-30T12:46:07;28.40;45.10
30520;DHT22;17300;50.374;8.006;2023-07-30T12:48:44;28.40;45.10
30520;DHT22;17300;50.374;8.006;2023-07-30T12:51:11;28.30;45.10
30520;DHT22;17300;50.374;8.006;2023-07-30T12:53:37;28.30;45.80
30520;DHT22;17300;50.374;8.006;2023-07-30T12:56:05;28.30;45.10
30520;DHT22;17300;50.374;8.006;2023-07-30T12:58:32;28.20;44.80
30520;DHT22;17300;50.374;8.006;2023-07-30T13:00:59;28.20;44.60
30520;DHT22;17300;50.374;8.006;2023-07-30T13:03:26;28.10;44.40
30520;DHT22;17300;50.374;8.006;2023-07-30T13:05:52;28.00;44.30
30520;DHT22;17300;50.374;8.006;2023-07-30T13:08:19;28.00;44.20
30520;DHT22;17300;50.374;8.006;2023-07-30T13:10:46;28.00;44.80
30520;DHT22;17300;50.374;8.006;2023-07-30T13:13:14;27.90;44.90
30520;DHT22;17300;50.374;8.006;2023-07-30T13:15:40;27.90;45.30
30520;DHT22;17300;50.374;8.006;2023-07-30T13:18:07;27.90;45.10
30520;DHT22;17300;50.374;8.006;2023-07-30T13:20:34;27.90;45.00
30520;DHT22;17300;50.374;8.006;2023-07-30T13:23:00;27.80;44.70
30520;DHT22;17300;50.374;8.006;2023-07-30T13:25:27;27.80;45.30
30520;DHT22;17300;50.374;8.006;2023-07-30T13:28:03;27.90;45.30
30520;DHT22;17300;50.374;8.006;2023-07-30T13:30:41;27.90;45.00
30520;DHT22;17300;50.374;8.006;2023-07-30T13:33:08;27.90;44.60
30520;DHT22;17300;50.374;8.006;2023-07-30T13:35:34;28.00;45.40
30520;DHT22;17300;50.374;8.006;2023-07-30T13:38:01;28.00;45.40
30520;DHT22;17300;50.374;8.006;2023-07-30T13:40:28;28.00;44.90
30520;DHT22;17300;50.374;8.006;2023-07-30T13:42:54;28.00;44.60
30520;DHT22;17300;50.374;8.006;2023-07-30T13:45:21;28.00;44.60
30520;DHT22;17300;50.374;8.006;2023-07-30T13:47:49;28.00;44.80
30520;DHT22;17300;50.374;8.006;2023-07-30T13:50:16;28.00;44.60
30520;DHT22;17300;50.374;8.006;2023-07-30T13:52:44;27.90;44.80
30520;DHT22;17300;50.374;8.006;2023-07-30T13:55:12;27.90;44.50
30520;DHT22;17300;50.374;8.006;2023-07-30T13:57:39;27.90;44.50
30520;DHT22;17300;50.374;8.006;2023-07-30T14:00:13;27.90;43.90
30520;DHT22;17300;50.374;8.006;2023-07-30T14:02:46;27.90;43.50
30520;DHT22;17300;50.374;8.006;2023-07-30T14:05:26;27.80;43.40
30520;DHT22;17300;50.374;8.006;2023-07-30T14:07:56;27.80;43.30
30520;DHT22;17300;50.374;8.006;2023-07-30T14:10:23;27.70;43.30
30520;DHT22;17300;50.374;8.006;2023-07-30T14:12:50;27.70;43.40
30520;DHT22;17300;50.374;8.006;2023-07-30T14:15:23;27.70;43.40
30520;DHT22;17300;50.374;8.006;2023-07-30T14:17:53;27.60;43.20
30520;DHT22;17300;50.374;8.006;2023-07-30T14:20:20;27.60;43.10
30520;DHT22;17300;50.374;8.006;2023-07-30T14:22:48;27.50;42.90
30520;DHT22;17300;50.374;8.006;2023-07-30T14:25:17;27.40;43.00
30520;DHT22;17300;50.374;8.006;2023-07-30T14:27:43;27.30;43.00
30520;DHT22;17300;50.374;8.006;2023-07-30T14:30:11;27.20;42.90
30520;DHT22;17300;50.374;8.006;2023-07-30T14:32:37;27.10;42.90
30520;DHT22;17300;50.374;8.006;2023-07-30T14:35:05;27.00;42.70
30520;DHT22;17300;50.374;8.006;2023-07-30T14:37:32;26.80;42.70
30520;DHT22;17300;50.374;8.006;2023-07-30T14:40:00;26.70;43.10
30520;DHT22;17300;50.374;8.006;2023-07-30T14:42:26;26.60;43.40
30520;DHT22;17300;50.374;8.006;2023-07-30T14:44:53;26.50;43.30
30520;DHT22;17300;50.374;8.006;2023-07-30T14:47:19;26.40;43.40
30520;DHT22;17300;50.374;8.006;2023-07-30T14:49:47;26.40;43.20
30520;DHT22;17300;50.374;8.006;2023-07-30T14:52:16;26.30;43.40
30520;DHT22;17300;50.374;8.006;2023-07-30T14:54:44;26.20;43.30
30520;DHT22;17300;50.374;8.006;2023-07-30T14:57:12;26.20;43.00
30520;DHT22;17300;50.374;8.006;2023-07-30T14:59:39;26.10;43.00
30520;DHT22;17300;50.374;8.006;2023-07-30T15:02:06;26.10;43.00
30520;DHT22;17300;50.374;8.006;2023-07-30T15:04:32;26.10;43.10
30520;DHT22;17300;50.374;8.006;2023-07-30T15:06:59;26.10;43.40
30520;DHT22;17300;50.374;8.006;2023-07-30T15:09:26;26.00;43.30
30520;DHT22;17300;50.374;8.006;2023-07-30T15:11:52;26.00;43.20
30520;DHT22;17300;50.374;8.006;2023-07-30T15:14:20;26.00;42.90
30520;DHT22;17300;50.374;8.006;2023-07-30T15:16:47;25.90;42.90
30520;DHT22;17300;50.374;8.006;2023-07-30T15:19:14;25.90;43.20
30520;DHT22;17300;50.374;8.006;2023-07-30T15:21:41;25.90;43.10
30520;DHT22;17300;50.374;8.006;2023-07-30T15:24:08;25.90;43.20
30520;DHT22;17300;50.374;8.006;2023-07-30T15:26:35;25.90;43.30
30520;DHT22;17300;50.374;8.006;2023-07-30T15:29:01;25.90;43.40
30520;DHT22;17300;50.374;8.006;2023-07-30T15:31:30;25.90;43.60